Terminal Aerodrome Forecast
Issued by NWS

Home | Current Version | Previous Version | Text Only | Print | Product List | Glossary On
Versions: 1 2 3 4 5 6 7 8 9 10 11 12 13 14 15 16 17 18 19 20 21 22 23 24 25 26 27 28 29 30 31 32 33 34 35 36 37 38
000
FTAK31 PAFA 211736
TAFAFA
TAF
PAFA 211736Z 2118/2224 VRB03KT P6SM -SN VCFG SCT045 BKN090
     FM212100 VRB03KT P6SM FEW250
     FM221800 VRB03KT P6SM -SN BKN050 OVC100
     FM222000 VRB03KT 3SM -SN BR SCT012 BKN025 OVC035=

USA.gov is the U.S. government's official web portal to all federal, state and local government web resources and services.